| time (UTC) | temp C | wind direction | speed KPH | gust KPH | rain 1hr cm | rain 24hr cm | rain mn cm | humidity % | barometer mb |
| 20260505035351 | 17 | 186 | 0.0 | 0.0 | 0.00 | 0.00 | 0.00 | 61 | 1004.3 |
| 20260505034317 | 17 | 182 | 0.0 | 0.0 | 0.00 | 0.00 | 0.00 | 62 | 1004.3 |
| 20260505033331 | 17 | 188 | 0.0 | 0.0 | 0.00 | 0.00 | 0.00 | 62 | 1004.3 |
| 20260505032345 | 17 | 176 | 0.0 | 0.0 | 0.00 | 0.00 | 0.00 | 63 | 1004.3 |
| 20260505031339 | 18 | 171 | 0.0 | 0.0 | 0.00 | 0.00 | 0.00 | 61 | 1004.3 |
| 20260505030359 | 18 | 171 | 0.0 | 0.0 | 0.00 | 0.00 | 0.00 | 61 | 1004.3 |
| 20260505025414 | 18 | 178 | 0.0 | 0.0 | 0.00 | 0.00 | 0.00 | 61 | 1004.4 |
| 20260505024434 | 18 | 178 | 0.0 | 0.0 | 0.00 | 0.00 | 0.00 | 61 | 1004.4 |
| 20260505022331 | 18 | 174 | 0.0 | 0.0 | 0.00 | 0.00 | 0.00 | 61 | 1004.4 |
| 20260505021332 | 18 | 175 | 0.0 | 0.0 | 0.00 | 0.00 | 0.00 | 61 | 1004.4 |
| 20260505020340 | 18 | 179 | 0.0 | 0.0 | 0.00 | 0.00 | 0.00 | 61 | 1004.4 |
| 20260505015312 | 18 | 181 | 0.0 | 0.0 | 0.00 | 0.00 | 0.00 | 61 | 1004.0 |
| 20260505014310 | 18 | 198 | 0.0 | 0.0 | 0.00 | 0.00 | 0.00 | 60 | 1004.1 |
| 20260505013305 | 18 | 198 | 0.0 | 0.0 | 0.00 | 0.00 | 0.00 | 60 | 1004.1 |
| 20260505012308 | 18 | 176 | 0.0 | 0.0 | 0.00 | 0.00 | 0.00 | 60 | 1004.0 |
| 20260505011313 | 18 | 174 | 0.0 | 0.0 | 0.00 | 0.00 | 0.00 | 60 | 1003.9 |
| 20260505005146 | 19 | 178 | 0.0 | 0.0 | 0.00 | 0.00 | 0.00 | 58 | 1003.8 |
| 20260505004211 | 19 | 182 | 0.0 | 0.0 | 0.00 | 0.00 | 0.00 | 58 | 1003.9 |
| 20260505003147 | 19 | 178 | 0.0 | 0.0 | 0.00 | 0.00 | 0.00 | 58 | 1003.9 |
| 20260505002142 | 19 | 176 | 0.0 | 0.0 | 0.00 | 0.00 | 0.00 | 55 | 1003.7 |
| 20260505001155 | 19 | 175 | 0.0 | 0.0 | 0.00 | 0.00 | 0.00 | 55 | 1003.6 |
| 20260504235038 | 20 | 181 | 0.0 | 0.0 | 0.00 | 0.00 | 0.00 | 53 | 1003.6 |
| 20260504234011 | 20 | 174 | 1.6 | 17.7 | 0.00 | 0.00 | 0.00 | 51 | 1003.7 |
| 20260504232939 | 20 | 188 | 1.6 | 17.7 | 0.00 | 0.00 | 0.00 | 50 | 1003.7 |
| 20260504230752 | 21 | 229 | 0.0 | 6.4 | 0.00 | 0.00 | 0.00 | 48 | 1003.5 |
| 20260504223508 | 21 | 172 | 1.6 | 8.0 | 0.00 | 0.00 | 0.00 | 45 | 1003.3 |
| 20260504222506 | 22 | 171 | 0.0 | 6.4 | 0.00 | 0.00 | 0.00 | 45 | 1003.3 |
| 20260504220314 | 22 | 199 | 3.2 | 11.3 | 0.00 | 0.00 | 0.00 | 44 | 1003.4 |
| 20260504215253 | 22 | 195 | 3.2 | 9.7 | 0.00 | 0.00 | 0.00 | 43 | 1003.4 |
| 20260504214249 | 22 | 171 | 1.6 | 9.7 | 0.00 | 0.00 | 0.00 | 43 | 1003.4 |
| 20260504213304 | 23 | 178 | 1.6 | 1.6 | 0.00 | 0.00 | 0.00 | 38 | 1003.4 |
| 20260504212323 | 23 | 192 | 0.0 | 6.4 | 0.00 | 0.00 | 0.00 | 38 | 1003.5 |
| 20260504211307 | 23 | 145 | 1.6 | 11.3 | 0.00 | 0.00 | 0.00 | 38 | 1003.4 |
| 20260504210320 | 23 | 229 | 1.6 | 11.3 | 0.00 | 0.00 | 0.00 | 37 | 1003.4 |
| 20260504205339 | 23 | 267 | 0.0 | 8.0 | 0.00 | 0.00 | 0.00 | 37 | 1003.6 |
| 20260504203243 | 23 | 220 | 0.0 | 9.7 | 0.00 | 0.00 | 0.00 | 38 | 1003.6 |
| 20260504202222 | 23 | 178 | 0.0 | 1.6 | 0.00 | 0.00 | 0.00 | 38 | 1003.9 |
| 20260504201218 | 23 | 237 | 0.0 | 11.3 | 0.00 | 0.00 | 0.00 | 39 | 1004.0 |
| 20260504200230 | 22 | 182 | 1.6 | 11.3 | 0.00 | 0.00 | 0.00 | 38 | 1004.0 |
| 20260504195207 | 23 | 172 | 0.0 | 0.0 | 0.00 | 0.00 | 0.00 | 38 | 1004.4 |
| 20260504194141 | 22 | 240 | 1.6 | 6.4 | 0.00 | 0.00 | 0.00 | 37 | 1004.6 |
| 20260504193156 | 23 | 199 | 0.0 | 3.2 | 0.00 | 0.00 | 0.00 | 36 | 1004.6 |
| 20260504192217 | 22 | 230 | 0.0 | 1.6 | 0.00 | 0.00 | 0.00 | 38 | 1004.9 |
| 20260504191213 | 22 | 241 | 1.6 | 11.3 | 0.00 | 0.00 | 0.00 | 37 | 1005.2 |
| 20260504185051 | 22 | 241 | 1.6 | 9.7 | 0.00 | 0.00 | 0.00 | 37 | 1005.4 |
| 20260504182855 | 21 | 181 | 0.0 | 8.0 | 0.00 | 0.00 | 0.00 | 41 | 1005.6 |
| 20260504180658 | 21 | 186 | 0.0 | 8.0 | 0.00 | 0.00 | 0.00 | 39 | 1005.9 |
| 20260504175636 | 21 | 178 | 0.0 | 9.7 | 0.00 | 0.00 | 0.00 | 37 | 1005.9 |
| 20260504174619 | 21 | 227 | 0.0 | 14.5 | 0.00 | 0.00 | 0.00 | 40 | 1005.9 |
| 20260504173612 | 21 | 239 | 0.0 | 6.4 | 0.00 | 0.00 | 0.00 | 40 | 1006.2 |
| 20260504172545 | 21 | 227 | 0.0 | 1.6 | 0.00 | 0.00 | 0.00 | 38 | 1006.3 |
| 20260504171534 | 21 | 164 | 0.0 | 0.0 | 0.00 | 0.00 | 0.00 | 38 | 1006.3 |
| 20260504160106 | 20 | 175 | 0.0 | 9.7 | 0.00 | 0.00 | 0.00 | 41 | 1007.4 |
| 20260504150126 | 18 | 174 | 0.0 | 1.6 | 0.00 | 0.00 | 0.00 | 49 | 1007.8 |
| 20260504140946 | 16 | 219 | 0.0 | 4.8 | 0.00 | 0.00 | 0.00 | 56 | 1008.1 |
| 20260504130706 | 13 | 251 | 0.0 | 1.6 | 0.00 | 0.00 | 0.00 | 62 | 1008.4 |
| 20260504081850 | 10 | 234 | 0.0 | 0.0 | 0.00 | 0.00 | 0.00 | 70 | 1009.2 |
| 20260504080906 | 9 | 234 | 0.0 | 0.0 | 0.00 | 0.00 | 0.00 | 70 | 1009.3 |
| 20260504060218 | 7 | 330 | 0.0 | 0.0 | 0.00 | 0.00 | 0.00 | 80 | 1009.6 |
| 20260504045015 | 7 | 330 | 0.0 | 0.0 | 0.00 | 0.00 | 0.00 | 80 | 1009.4 |
| 20260504041025 | 8 | 330 | 0.0 | 0.0 | 0.00 | 0.00 | 0.00 | 78 | 1009.4 |
| 20260504040029 | 8 | 330 | 0.0 | 0.0 | 0.00 | 0.00 | 0.00 | 74 | 1009.4 |